Time;durP1;ratioP1;P1;durP2;ratioP2;P2;SDS_P1;SDS_P2;PMS_P1;PMS_P2;Temp;Humidity;BMP_temperature;BMP_pressure;BME280_temperature;BME280_humidity;BME280_pressure;Samples;Min_cycle;Max_cycle;Signal;HPM_P1;HPM_P2
2023/05/01 00:00:44;;;;;;;;;;;;;;;15.80;64.39;100651.38;4964518;28;19915;-83
2023/05/01 00:03:34;;;;;;;;;;;;;;;15.78;64.23;100656.44;4964981;28;19914;-82
2023/05/01 00:06:26;;;;;;;;;;;;;;;15.79;64.38;100669.00;4968344;28;19914;-81
2023/05/01 00:09:18;;;;;;;;;;;;;;;15.82;64.54;100666.34;4965013;28;19918;-81
2023/05/01 00:12:12;;;;;;;;;;;;;;;15.78;64.58;100661.94;4962806;28;20480;-81
2023/05/01 00:15:02;;;;;;;;;;;;;;;15.82;64.87;100658.13;4965895;28;19914;-81
2023/05/01 00:17:51;;;;;;;;;;;;;;;15.96;63.59;100662.38;4964629;28;19914;-82
2023/05/01 00:20:43;;;;;;;;;;;;;;;15.92;63.15;100662.28;4969898;28;19915;-82
2023/05/01 00:23:35;;;;;;;;;;;;;;;16.13;61.65;100659.31;4967635;28;20397;-81
2023/05/01 00:26:25;;;;;;;;;;;;;;;16.48;59.29;100662.91;4963281;28;19914;-81
2023/05/01 00:29:14;;;;;;;;;;;;;;;16.62;58.09;100657.78;4962901;29;19918;-82
2023/05/01 00:32:04;;;;;;;;;;;;;;;16.71;57.94;100656.81;4966278;28;19914;-82
2023/05/01 00:34:56;;;;;;;;;;;;;;;16.81;56.40;100659.00;4961970;28;19914;-82
2023/05/01 00:37:48;;;;;;;;;;;;;;;16.99;55.29;100655.47;4962579;29;19914;-82
2023/05/01 00:40:40;;;;;;;;;;;;;;;17.05;54.26;100654.06;4962503;29;20386;-82
2023/05/01 00:43:32;;;;;;;;;;;;;;;17.06;54.98;100655.66;4961827;28;20385;-80
2023/05/01 00:46:24;;;;;;;;;;;;;;;17.10;53.77;100653.75;4962301;29;20385;-81
2023/05/01 00:49:16;;;;;;;;;;;;;;;17.11;53.34;100657.31;4961730;29;19918;-81
2023/05/01 00:52:08;;;;;;;;;;;;;;;17.18;52.92;100651.16;4965417;28;20293;-80
2023/05/01 00:55:00;;;;;;;;;;;;;;;17.15;51.99;100649.94;4963252;28;19914;-80
2023/05/01 00:57:52;;;;;;;;;;;;;;;17.16;52.55;100658.97;4961822;28;19918;-81
2023/05/01 01:00:45;;;;;;;;;;;;;;;17.20;52.07;100659.84;4961751;29;19915;-80
2023/05/01 01:03:37;;;;;;;;;;;;;;;17.23;51.56;100659.91;4961933;29;19914;-80
2023/05/01 01:06:45;;;;;;;;;;;;;;;17.23;51.17;100653.59;4961517;29;19922;-81
2023/05/01 01:09:32;;;;;;;;;;;;;;;17.25;51.06;100656.81;4962496;29;19919;-82
2023/05/01 01:12:22;;;;;;;;;;;;;;;17.23;51.25;100645.38;4962262;29;19914;-81
2023/05/01 01:15:12;;;;;;;;;;;;;;;17.21;50.93;100661.44;4962502;29;19914;-81
2023/05/01 01:18:13;;;;;;;;;;;;;;;17.27;50.98;100660.78;4962798;28;19915;-82
2023/05/01 01:21:12;;;;;;;;;;;;;;;17.26;51.26;100652.91;4962083;29;19918;-81
2023/05/01 01:24:05;;;;;;;;;;;;;;;17.26;50.52;100652.91;4963840;29;19914;-81
2023/05/01 01:27:20;;;;;;;;;;;;;;;17.27;50.50;100660.00;4962845;29;19914;-81
2023/05/01 01:30:13;;;;;;;;;;;;;;;17.33;50.33;100675.03;4964184;29;19914;-81
2023/05/01 01:33:23;;;;;;;;;;;;;;;17.29;51.22;100658.47;4962765;29;19914;-82
2023/05/01 01:36:21;;;;;;;;;;;;;;;17.23;51.01;100665.41;4961491;29;19914;-82
2023/05/01 01:39:30;;;;;;;;;;;;;;;17.26;51.82;100663.91;4964164;29;19918;-82
2023/05/01 01:42:23;;;;;;;;;;;;;;;17.21;51.46;100661.44;4962720;29;19914;-82
2023/05/01 01:45:22;;;;;;;;;;;;;;;17.21;51.19;100664.97;4963148;29;19914;-81
2023/05/01 01:48:15;;;;;;;;;;;;;;;17.19;51.27;100663.75;4965904;29;19918;-81
2023/05/01 01:51:09;;;;;;;;;;;;;;;17.20;51.55;100666.13;4963656;29;19914;-80
2023/05/01 01:54:01;;;;;;;;;;;;;;;17.12;52.00;100664.38;4961154;29;20455;-80
2023/05/01 01:56:53;;;;;;;;;;;;;;;17.12;52.63;100658.88;4964635;29;19918;-80
2023/05/01 01:59:47;;;;;;;;;;;;;;;17.21;50.04;100678.72;4962512;29;20011;-80
2023/05/01 02:02:38;;;;;;;;;;;;;;;17.17;50.13;100671.56;4966909;29;19914;-80
2023/05/01 02:05:31;;;;;;;;;;;;;;;17.19;50.33;100670.03;4961597;28;19918;-80
2023/05/01 02:08:24;;;;;;;;;;;;;;;17.17;50.16;100682.56;4971183;28;19918;-81
2023/05/01 02:11:16;;;;;;;;;;;;;;;17.10;49.90;100669.44;4980993;28;20385;-80
2023/05/01 02:14:09;;;;;;;;;;;;;;;17.12;50.19;100677.34;4983937;28;19914;-81
2023/05/01 02:17:01;;;;;;;;;;;;;;;17.14;50.47;100672.28;4988272;23;19923;-81
2023/05/01 02:19:53;;;;;;;;;;;;;;;17.07;50.95;100679.19;4940421;29;19923;-80
2023/05/01 02:22:44;;;;;;;;;;;;;;;17.03;50.19;100670.09;4951656;28;19919;-81
2023/05/01 02:25:39;;;;;;;;;;;;;;;17.04;50.34;100673.63;4938056;29;19915;-81
2023/05/01 02:28:31;;;;;;;;;;;;;;;16.95;50.03;100667.56;4938053;29;19919;-81
2023/05/01 02:31:20;;;;;;;;;;;;;;;16.90;50.04;100668.63;4950992;28;20294;-81
2023/05/01 02:34:11;;;;;;;;;;;;;;;16.88;50.66;100675.63;4954300;28;20309;-82
2023/05/01 02:37:03;;;;;;;;;;;;;;;16.84;49.92;100675.56;4952344;28;19914;-80
2023/05/01 02:39:55;;;;;;;;;;;;;;;16.81;49.79;100673.50;4944464;28;19922;-80
2023/05/01 02:42:48;;;;;;;;;;;;;;;16.79;50.45;100675.03;4954414;28;19914;-80
2023/05/01 02:45:45;;;;;;;;;;;;;;;16.75;50.90;100666.72;4929957;29;19918;-82
2023/05/01 02:48:37;;;;;;;;;;;;;;;16.68;50.53;100661.84;4924334;29;19919;-82
2023/05/01 02:51:30;;;;;;;;;;;;;;;16.75;51.05;100666.72;4955699;28;19914;-81
2023/05/01 02:54:22;;;;;;;;;;;;;;;16.76;50.46;100662.78;4935842;29;19915;-81
2023/05/01 02:57:14;;;;;;;;;;;;;;;16.72;50.13;100661.94;4948302;28;19922;-80
2023/05/01 03:00:08;;;;;;;;;;;;;;;16.65;50.09;100659.84;4940317;28;20329;-81
2023/05/01 03:02:59;;;;;;;;;;;;;;;16.68;50.36;100661.84;4941670;28;20291;-81
2023/05/01 03:05:51;;;;;;;;;;;;;;;16.58;50.22;100667.06;4926667;29;19919;-79
2023/05/01 03:08:43;;;;;;;;;;;;;;;16.55;50.39;100660.34;4933155;29;19919;-82
2023/05/01 03:11:35;;;;;;;;;;;;;;;16.50;50.84;100659.81;4942298;28;19918;-80
2023/05/01 03:14:27;;;;;;;;;;;;;;;16.48;51.39;100656.63;4960056;28;19914;-82
2023/05/01 03:17:19;;;;;;;;;;;;;;;16.50;51.70;100665.31;4945230;28;19918;-82
2023/05/01 03:20:11;;;;;;;;;;;;;;;16.45;50.93;100654.59;4954589;28;19915;-81
2023/05/01 03:23:03;;;;;;;;;;;;;;;16.50;51.22;100651.59;4931545;29;20321;-82
2023/05/01 03:25:55;;;;;;;;;;;;;;;16.44;50.58;100650.25;4934831;28;19927;-80
2023/05/01 03:28:47;;;;;;;;;;;;;;;16.42;51.70;100652.56;4956069;28;19919;-81
2023/05/01 03:31:39;;;;;;;;;;;;;;;16.41;50.46;100648.22;4932725;29;20382;-81
2023/05/01 03:34:30;;;;;;;;;;;;;;;16.41;51.01;100650.97;4937134;28;20302;-81
2023/05/01 03:37:20;;;;;;;;;;;;;;;16.37;51.40;100647.34;4937956;29;19915;-80
2023/05/01 03:40:12;;;;;;;;;;;;;;;16.31;50.71;100644.06;4937513;28;20302;-80
2023/05/01 03:43:37;;;;;;;;;;;;;;;16.26;50.62;100639.66;4917160;29;19931;-81
2023/05/01 03:46:31;;;;;;;;;;;;;;;16.21;50.51;100637.16;4942821;28;19919;-80
2023/05/01 03:49:21;;;;;;;;;;;;;;;16.27;50.24;100641.25;4972119;28;20390;-81
2023/05/01 03:52:13;;;;;;;;;;;;;;;16.21;50.12;100637.16;4956423;28;19915;-80
2023/05/01 03:55:02;;;;;;;;;;;;;;;16.21;49.96;100639.91;4973413;28;19914;-81
2023/05/01 03:57:59;;;;;;;;;;;;;;;16.19;50.29;100646.94;4957571;28;20382;-81
2023/05/01 04:00:49;;;;;;;;;;;;;;;16.17;49.48;100647.28;4969242;28;19918;-80
2023/05/01 04:03:39;;;;;;;;;;;;;;;16.16;49.24;100642.94;4958596;28;19914;-80
2023/05/01 04:06:31;;;;;;;;;;;;;;;16.18;49.55;100639.84;4957074;28;20378;-80
2023/05/01 04:09:20;;;;;;;;;;;;;;;16.16;48.07;100639.38;4955280;29;19922;-83
2023/05/01 04:12:12;;;;;;;;;;;;;;;16.22;47.00;100632.47;4972406;28;19914;-83
2023/05/01 04:15:04;;;;;;;;;;;;;;;16.31;46.97;100638.56;4957080;28;19914;-81
2023/05/01 04:17:54;;;;;;;;;;;;;;;16.23;46.08;100628.59;4956939;28;20366;-82
2023/05/01 04:20:46;;;;;;;;;;;;;;;16.21;46.37;100630.88;4957312;28;19914;-82
2023/05/01 04:23:38;;;;;;;;;;;;;;;16.21;45.69;100636.38;4954976;28;19922;-82
2023/05/01 04:26:30;;;;;;;;;;;;;;;16.25;45.13;100638.03;4952154;28;20310;-83
2023/05/01 04:29:23;;;;;;;;;;;;;;;16.24;44.59;100636.47;4943622;28;19919;-83
2023/05/01 04:32:13;;;;;;;;;;;;;;;16.23;45.20;100643.09;4932448;28;19934;-82
2023/05/01 04:35:05;;;;;;;;;;;;;;;16.33;43.46;100650.00;4940654;28;19914;-82
2023/05/01 04:37:57;;;;;;;;;;;;;;;16.29;43.88;100654.63;4930414;29;19915;-82
2023/05/01 04:40:46;;;;;;;;;;;;;;;16.24;43.56;100650.19;4939124;28;19914;-82
2023/05/01 04:43:38;;;;;;;;;;;;;;;16.16;43.00;100644.88;4949225;29;19915;-84
2023/05/01 04:46:28;;;;;;;;;;;;;;;16.15;42.26;100640.56;4953567;28;19922;-82
2023/05/01 04:49:22;;;;;;;;;;;;;;;16.24;43.26;100647.47;4929127;29;20405;-82
2023/05/01 04:52:14;;;;;;;;;;;;;;;16.23;42.08;100639.56;4941236;29;19919;-80
2023/05/01 04:55:17;;;;;;;4.22;2.00;;;;;;;16.08;42.33;100640.38;4938219;29;20395;-81
2023/05/01 04:58:27;;;;;;;353.75;200.73;;;;;;;16.08;42.99;100643.91;4937788;29;20047;-81
2023/05/01 05:01:25;;;;;;;324.00;186.40;;;;;;;16.09;43.59;100651.00;4943222;29;20078;-82
2023/05/01 05:04:17;;;;;;;;;;;;;;;16.21;43.35;100647.34;4927056;29;20052;-82
2023/05/01 05:07:09;;;;;;;;;;;;;;;16.22;44.32;100649.75;4922982;29;19915;-81
2023/05/01 05:10:24;;;;;;;;;;;;;;;16.29;44.08;100654.63;4920702;29;19919;-82
2023/05/01 05:13:28;;;;;;;;;;;;;;;16.32;43.14;100659.38;4945598;28;19914;-83
2023/05/01 05:16:22;;;;;;;;;;;;;;;16.45;43.28;100660.09;4954128;28;19914;-82
2023/05/01 05:19:14;;;;;;;;;;;;;;;16.35;43.13;100655.94;4940566;29;20561;-81
2023/05/01 05:22:06;;;;;;;;;;;;;;;16.44;43.27;100656.56;4953295;29;19914;-82
2023/05/01 05:25:05;;;;;;;;;;;;;;;16.45;42.62;100658.16;4954645;29;19918;-81
2023/05/01 05:27:57;;;;;;;;;;;;;;;16.49;43.40;100663.72;4949658;28;19919;-80
2023/05/01 05:30:49;;;;;;;;;;;;;;;16.54;42.81;100661.50;4930418;29;19915;-80
2023/05/01 05:33:42;;;;;;;;;;;;;;;16.65;42.86;100656.28;4927870;29;19915;-81
2023/05/01 05:36:34;;;;;;;;;;;;;;;16.70;42.47;100660.72;4941622;29;19914;-81
2023/05/01 05:39:26;;;;;;;;;;;;;;;16.68;42.64;100672.84;4926199;29;19922;-81
2023/05/01 05:42:18;;;;;;;;;;;;;;;16.64;42.32;100660.97;4961177;28;20309;-81
2023/05/01 05:45:07;;;;;;;;;;;;;;;16.68;42.54;100675.59;4967953;28;19914;-82
2023/05/01 05:47:57;;;;;;;;;;;;;;;16.58;42.26;100675.31;4936427;29;19919;-81
2023/05/01 05:50:48;;;;;;;;;;;;;;;16.50;42.37;100677.09;4958211;28;20382;-80
2023/05/01 05:53:41;;;;;;;;;;;;;;;16.55;42.99;100674.09;4948514;28;20390;-82
2023/05/01 05:56:33;;;;;;;;;;;;;;;16.53;42.57;100678.31;4938656;29;19915;-81
2023/05/01 05:59:25;;;;;;;;;;;;;;;16.61;42.51;100677.34;4940571;29;20289;-80
2023/05/01 06:02:17;;;;;;;;;;;;;;;16.58;43.44;100675.31;4959935;28;19914;-80
2023/05/01 06:05:09;;;;;;;;;;;;;;;16.60;42.53;100675.78;4948659;28;20378;-81
2023/05/01 06:08:01;;;;;;;;;;;;;;;16.39;44.36;100675.25;4951245;28;20374;-81
2023/05/01 06:10:53;;;;;;;;;;;;;;;16.70;43.26;100677.19;4945197;29;19914;-79
2023/05/01 06:13:40;;;;;;;;;;;;;;;16.77;42.58;100678.13;4957525;29;19918;-79
2023/05/01 06:16:32;;;;;;;;;;;;;;;16.75;42.42;100677.72;4936394;28;20393;-80
2023/05/01 06:19:24;;;;;;;;;;;;;;;16.57;43.12;100680.00;4938926;29;19914;-81
2023/05/01 06:22:16;;;;;;;;;;;;;;;16.57;43.30;100670.97;4952022;28;19915;-81
2023/05/01 06:25:20;;;;;;;;;;;;;;;17.02;43.00;100675.94;4926216;29;19915;-81
2023/05/01 06:28:12;;;;;;;;;;;;;;;17.00;42.89;100683.75;4931318;29;20565;-76
2023/05/01 06:31:05;;;;;;;;;;;;;;;17.16;43.10;100683.72;4939567;29;19914;-76
2023/05/01 06:33:58;;;;;;;;;;;;;;;17.15;42.60;100680.16;4931882;28;19915;-76
2023/05/01 06:37:10;;;;;;;;;;;;;;;17.40;42.48;100691.69;4935517;29;19915;-76
2023/05/01 06:40:02;;;;;;;;;;;;;;;17.14;43.83;100683.25;4936217;29;19914;-77
2023/05/01 06:42:55;;;;;;;;;;;;;;;17.43;42.32;100686.25;4935897;28;20394;-76
2023/05/01 06:45:48;;;;;;;;;;;;;;;17.50;42.72;100691.91;4925662;29;19915;-76
2023/05/01 06:48:40;;;;;;;;;;;;;;;17.26;43.45;100689.44;4951697;28;19919;-78
2023/05/01 06:51:35;;;;;;;;;;;;;;;17.50;42.48;100691.91;4938922;28;19919;-76
2023/05/01 06:54:30;;;;;;;;;;;;;;;17.78;42.98;100682.63;4939095;29;19914;-74
2023/05/01 06:57:22;;;;;;;;;;;;;;;17.56;42.36;100684.16;4933083;29;19915;-77
2023/05/01 07:00:14;;;;;;;;;;;;;;;17.49;42.62;100684.00;4941593;29;19914;-76
2023/05/01 07:03:06;;;;;;;;;;;;;;;17.34;43.16;100685.66;4932420;28;19915;-75
2023/05/01 07:05:58;;;;;;;;;;;;;;;17.69;43.52;100679.31;4933626;28;19914;-76
2023/05/01 07:08:50;;;;;;;;;;;;;;;17.91;43.16;100681.31;4926957;29;19919;-76
2023/05/01 07:11:41;;;;;;;;;;;;;;;17.88;42.67;100676.50;4927778;28;19918;-76
2023/05/01 07:14:33;;;;;;;;;;;;;;;18.00;42.95;100681.06;4930064;29;19915;-76
2023/05/01 07:17:23;;;;;;;;;;;;;;;18.00;42.31;100675.56;4930228;29;19915;-77
2023/05/01 07:20:12;;;;;;;;;;;;;;;18.20;42.34;100682.59;4926687;29;19918;-79
2023/05/01 07:23:04;;;;;;;;;;;;;;;18.26;42.04;100678.38;4935422;28;19915;-77
2023/05/01 07:25:56;;;;;;;;;;;;;;;18.39;42.19;100683.31;4942814;29;19914;-77
2023/05/01 07:28:48;;;;;;;;;;;;;;;18.57;41.37;100680.09;4934410;28;19919;-76
2023/05/01 07:31:38;;;;;;;;;;;;;;;17.76;41.77;100680.25;4943285;28;19915;-76
2023/05/01 07:34:30;;;;;;;;;;;;;;;18.30;41.45;100681.97;4938172;29;19915;-79
2023/05/01 07:37:19;;;;;;;;;;;;;;;17.88;41.83;100682.03;4938080;29;19914;-77
2023/05/01 07:40:11;;;;;;;;;;;;;;;18.09;41.19;100685.16;4948065;28;20297;-76
2023/05/01 07:43:03;;;;;;;;;;;;;;;18.69;40.98;100686.19;4939120;28;19915;-76
2023/05/01 07:46:00;;;;;;;;;;;;;;;18.23;41.15;100690.13;4940744;28;19919;-77
2023/05/01 07:48:52;;;;;;;;;;;;;;;18.53;39.57;100687.47;4941877;29;19919;-77
2023/05/01 07:51:44;;;;;;;;;;;;;;;18.83;38.58;100679.31;4933575;28;19919;-76
2023/05/01 07:54:36;;;;;;;;;;;;;;;19.59;38.22;100691.75;4949201;28;19914;-76
2023/05/01 07:57:28;;;;;;;;;;;;;;;19.50;39.70;100694.03;4925820;29;19915;-76
2023/05/01 08:00:18;;;;;;;;;;;;;;;19.23;38.78;100696.81;4928729;29;19914;-76
2023/05/01 08:03:10;;;;;;;;;;;;;;;19.48;37.37;100699.09;4929126;29;19915;-76
2023/05/01 08:06:02;;;;;;;;;;;;;;;19.53;37.47;100698.78;4937727;29;20314;-78
2023/05/01 08:08:51;;;;;;;;;;;;;;;19.15;38.31;100699.81;4922262;29;19919;-77
2023/05/01 08:11:43;;;;;;;;;;;;;;;19.61;37.55;100698.47;4918562;29;20302;-76
2023/05/01 08:14:35;;;;;;;;;;;;;;;18.71;38.40;100694.88;4921631;29;19919;-83
2023/05/01 08:17:28;;;;;;;;;;;;;;;18.70;38.69;100692.47;4950574;23;19922;-78
2023/05/01 08:20:17;;;;;;;;;;;;;;;18.84;38.34;100691.91;4962889;28;20293;-79
2023/05/01 08:23:09;;;;;;;;;;;;;;;18.71;39.19;100700.38;4974136;28;19918;-78
2023/05/01 08:26:01;;;;;;;;;;;;;;;18.56;39.19;100690.31;4972726;28;19915;-79
2023/05/01 08:28:51;;;;;;;;;;;;;;;18.35;39.76;100698.19;4946620;29;19919;-80
2023/05/01 08:31:43;;;;;;;;;;;;;;;18.26;39.87;100701.19;4948017;29;19914;-79
2023/05/01 08:34:35;;;;;;;;;;;;;;;18.33;40.60;100692.28;4956744;29;19914;-78
2023/05/01 08:37:27;;;;;;;;;;;;;;;18.23;39.34;100685.44;4969711;28;19915;-79
2023/05/01 08:40:19;;;;;;;;;;;;;;;18.39;40.67;100704.53;4968589;28;19915;-79
2023/05/01 08:43:11;;;;;;;;;;;;;;;18.31;39.88;100698.13;4960807;28;19914;-79
2023/05/01 08:46:08;;;;;;;;;;;;;;;18.40;39.76;100695.13;4956275;28;19914;-79
2023/05/01 08:48:59;;;;;;;;;;;;;;;18.38;39.63;100694.72;4961151;28;19922;-79
2023/05/01 08:51:51;;;;;;;;;;;;;;;18.40;39.69;100695.13;4963464;28;20301;-79
2023/05/01 08:54:43;;;;;;;;;;;;;;;18.47;39.39;100695.25;4961388;28;19915;-79
2023/05/01 08:57:37;;;;;;;;;;;;;;;18.48;39.45;100707.88;4962071;28;19914;-79
2023/05/01 09:00:29;;;;;;;;;;;;;;;18.52;39.00;100694.16;4964419;28;19917;-79
2023/05/01 09:03:22;;;;;;;;;;;;;;;18.47;38.53;100703.53;4949516;28;19914;-79
2023/05/01 09:06:12;;;;;;;;;;;;;;;18.58;38.93;100700.97;4947274;28;19917;-79
2023/05/01 09:09:04;;;;;;;;;;;;;;;18.59;38.05;100697.81;4957214;28;19918;-79
2023/05/01 09:11:57;;;;;;;;;;;;;;;18.67;38.99;100696.78;4966995;28;19914;-79
2023/05/01 09:14:42;;;;;;;;;;;;;;;18.70;38.84;100701.53;4962149;28;19914;-79
2023/05/01 09:17:35;;;;;;;;;;;;;;;18.83;39.43;100696.63;4956581;28;19914;-79
2023/05/01 09:20:27;;;;;;;;;;;;;;;18.91;39.65;100698.31;4956269;28;19914;-79
2023/05/01 09:23:19;;;;;;;;;;;;;;;18.95;38.50;100704.66;4948908;28;20289;-76
2023/05/01 09:26:11;;;;;;;;;;;;;;;18.95;37.81;100701.13;4952501;28;19918;-77
2023/05/01 09:29:03;;;;;;;;;;;;;;;19.09;37.96;100704.09;4953922;28;19919;-77
2023/05/01 09:31:55;;;;;;;;;;;;;;;19.10;36.95;100708.41;4958668;28;20389;-77
2023/05/01 09:34:45;;;;;;;;;;;;;;;19.09;36.72;100702.13;4981850;28;20378;-77
2023/05/01 09:37:37;;;;;;;;;;;;;;;19.10;36.83;100694.63;4961281;28;19915;-77
2023/05/01 09:40:32;;;;;;;;;;;;;;;19.17;37.50;100694.75;4958604;28;19914;-79
2023/05/01 09:43:30;;;;;;;;;;;;;;;19.21;37.63;100706.59;4962910;28;19915;-77
2023/05/01 09:46:22;;;;;;;;;;;;;;;19.23;37.94;100698.75;4960512;28;19914;-77
2023/05/01 09:49:14;;;;;;;;;;;;;;;19.23;37.13;100710.59;4948503;28;19918;-78
2023/05/01 09:52:15;;;;;;;;;;;;;;;19.31;37.91;100705.94;4968888;28;19914;-78
2023/05/01 09:55:17;;;;;;;;;;;;;;;19.27;37.56;100707.06;4955695;28;19914;-77
2023/05/01 09:58:27;;;;;;;;;;;;;;;19.03;37.44;100705.56;4959911;28;19922;-77
2023/05/01 10:01:19;;;;;;;;;;;;;;;18.92;37.97;100694.41;4950376;28;19918;-77
2023/05/01 10:04:09;;;;;;;;;;;;;;;18.98;38.41;100692.13;4965361;28;19915;-76
2023/05/01 10:07:01;;;;;;;;;;;;;;;19.06;38.36;100694.59;4974107;28;19914;-76
2023/05/01 10:09:53;;;;;;;;;;;;;;;19.13;38.37;100693.91;4970703;28;19922;-77
2023/05/01 10:12:42;;;;;;;;;;;;;;;19.11;38.18;100688.75;4953505;28;20317;-77
2023/05/01 10:15:40;;;;;;;;;;;;;;;19.05;38.11;100686.69;4958662;28;19914;-76
2023/05/01 10:18:31;;;;;;;;;;;;;;;19.01;38.24;100683.09;4959294;28;19914;-77
2023/05/01 10:21:23;;;;;;;;;;;;;;;19.02;38.09;100687.44;4959649;28;19914;-76
2023/05/01 10:24:15;;;;;;;;;;;;;;;19.06;38.91;100677.25;4955917;28;20290;-76
2023/05/01 10:27:07;;;;;;;;;;;;;;;19.03;38.51;100669.75;4945910;28;19915;-76
2023/05/01 10:30:00;;;;;;;;;;;;;;;19.05;37.66;100661.88;4968870;28;20360;-77
2023/05/01 10:32:50;;;;;;;;;;;;;;;19.06;38.20;100663.47;4981554;28;19914;-76
2023/05/01 10:35:43;;;;;;;;;;;;;;;19.06;38.16;100658.75;4979474;28;20289;-77
2023/05/01 10:38:36;;;;;;;;;;;;;;;19.13;38.20;100652.56;4967808;28;19915;-76
2023/05/01 10:41:41;;;;;;;;;;;;;;;19.08;38.06;100647.38;4961554;28;19914;-77
2023/05/01 10:44:33;;;;;;;;;;;;;;;19.07;38.08;100645.78;4958489;28;19918;-76
2023/05/01 10:47:30;;;;;;;;;;;;;;;19.21;38.57;100646.75;4958999;28;20317;-77
2023/05/01 10:50:21;;;;;;;;;;;;;;;18.98;37.62;100614.94;4951722;28;19918;-77
2023/05/01 10:53:14;;;;;;;;;;;;;;;19.22;36.88;100648.34;4957777;28;19914;-77
2023/05/01 10:56:04;;;;;;;;;;;;;;;19.20;37.06;100650.66;4956144;28;20001;-77
2023/05/01 10:58:59;;;;;;;;;;;;;;;19.18;37.57;100643.94;4973647;28;19914;-77
2023/05/01 11:01:51;;;;;;;;;;;;;;;19.21;36.71;100652.25;4976073;28;20362;-77
2023/05/01 11:04:50;;;;;;;;;;;;;;;19.26;37.00;100648.38;4979367;28;19914;-77
2023/05/01 11:07:39;;;;;;;;;;;;;;;19.13;35.97;100639.56;4976915;28;19914;-77
2023/05/01 11:10:31;;;;;;;;;;;;;;;19.05;35.89;100642.59;4965037;28;19918;-76
2023/05/01 11:13:41;;;;;;;;;;;;;;;19.12;36.48;100642.69;4951111;28;19915;-76
2023/05/01 11:16:43;;;;;;;;;;;;;;;19.02;35.78;100646.09;4961620;28;19914;-77
2023/05/01 11:19:44;;;;;;;;;;;;;;;19.12;36.30;100637.97;4966494;28;19914;-77
2023/05/01 11:22:34;;;;;;;;;;;;;;;19.20;36.34;100644.34;4974709;28;19914;-76
2023/05/01 11:25:27;;;;;;;;;;;;;;;19.19;35.58;100631.75;4948794;28;20317;-77
2023/05/01 11:28:19;;;;;;;;;;;;;;;19.21;36.63;100632.16;4959143;28;20298;-78
2023/05/01 11:31:10;;;;;;;;;;;;;;;19.25;36.13;100633.00;4964805;28;19977;-77
2023/05/01 11:34:02;;;;;;;;;;;;;;;19.29;36.94;100631.09;4952116;28;19919;-78
2023/05/01 11:36:55;;;;;;;;;;;;;;;19.39;36.85;100626.88;4967680;28;19914;-77
2023/05/01 11:39:53;;;;;;;;;;;;;;;19.43;36.86;100624.94;4971623;28;19914;-77
2023/05/01 11:42:45;;;;;;;;;;;;;;;19.44;35.83;100619.09;4980827;28;19914;-77
2023/05/01 11:45:34;;;;;;;;;;;;;;;19.42;36.28;100612.31;4979374;28;19914;-78
2023/05/01 11:48:26;;;;;;;;;;;;;;;19.47;37.51;100610.03;4981668;28;20288;-78
2023/05/01 11:51:18;;;;;;;;;;;;;;;19.48;37.08;100617.16;4981243;28;19918;-78
2023/05/01 11:54:11;;;;;;;;;;;;;;;19.52;37.47;100612.47;4984579;28;19914;-78
2023/05/01 11:57:04;;;;;;;;;;;;;;;19.48;36.67;100611.63;4982433;28;20381;-78
2023/05/01 11:59:54;;;;;;;;;;;;;;;19.34;37.16;100616.97;4979680;28;19914;-78
2023/05/01 12:03:02;;;;;;;;;;;;;;;19.31;37.35;100603.94;4981353;28;19914;-78
2023/05/01 12:05:54;;;;;;;;;;;;;;;19.33;37.70;100604.34;4942818;29;19915;-78
2023/05/01 12:08:49;;;;;;;;;;;;;;;19.23;37.51;100605.03;4946134;28;19914;-78
2023/05/01 12:11:39;;;;;;;;;;;;;;;19.20;36.93;100600.25;4968272;28;20366;-77
2023/05/01 12:14:31;;;;;;;;;;;;;;;19.22;37.25;100593.19;4969690;28;19914;-77
2023/05/01 12:17:20;;;;;;;;;;;;;;;19.21;36.28;100596.31;4952683;28;20376;-77
2023/05/01 12:20:08;;;;;;;;;;;;;;;19.08;36.38;100592.25;4960479;28;19914;-77
2023/05/01 12:23:00;;;;;;;;;;;;;;;19.13;36.67;100584.44;4957078;28;19918;-77
2023/05/01 12:25:52;;;;;;;;;;;;;;;18.96;37.26;100590.50;4962964;28;20298;-77
2023/05/01 12:28:54;;;;;;;;;;;;;;;18.95;38.05;100585.38;4959361;28;19914;-77
2023/05/01 12:31:50;;;;;;;;;;;;;;;18.98;39.17;100593.69;4962659;28;19918;-77
2023/05/01 12:34:42;;;;;;;;;;;;;;;18.99;38.96;100594.50;4958081;28;19914;-77
2023/05/01 12:37:35;;;;;;;;;;;;;;;19.03;37.88;100593.38;4954993;28;19914;-77
2023/05/01 12:40:27;;;;;;;;;;;;;;;19.04;37.36;100594.16;4944750;29;19915;-78
2023/05/01 12:43:19;;;;;;;;;;;;;;;19.05;36.80;100596.53;4942384;29;19915;-78
2023/05/01 12:46:14;;;;;;;;;;;;;;;19.09;37.25;100596.59;4945489;29;20370;-78
2023/05/01 12:49:04;;;;;;;;;;;;;;;19.02;37.25;100588.22;4940927;29;20374;-78
2023/05/01 12:51:56;;;;;;;;;;;;;;;18.94;36.71;100592.88;4941523;29;19915;-78
2023/05/01 12:54:45;;;;;;;;;;;;;;;19.12;37.98;100598.59;4944413;29;19914;-78
2023/05/01 12:57:52;;;;;;;;;;;;;;;19.20;37.28;100590.00;4942269;29;19915;-78
2023/05/01 13:00:43;;;;;;;;;;;;;;;19.18;36.27;100583.31;4941973;29;20386;-77
2023/05/01 13:03:34;;;;;;;;;;;;;;;19.27;36.66;100583.78;4940574;29;19915;-77
2023/05/01 13:06:32;;;;;;;;;;;;;;;19.27;37.44;100589.31;4936966;29;20306;-77
2023/05/01 13:09:19;;;;;;;;;;;;;;;19.28;36.81;100585.38;4935403;29;19919;-77
2023/05/01 13:12:09;;;;;;;;;;;;;;;19.38;36.24;100590.22;4973555;28;19914;-76
2023/05/01 13:15:01;;;;;;;;;;;;;;;19.28;35.73;100590.09;4973839;28;20389;-77
2023/05/01 13:17:50;;;;;;;;;;;;;;;19.28;36.21;100599.19;4977498;28;19914;-77
2023/05/01 13:20:42;;;;;;;;;;;;;;;19.35;36.24;100596.47;4976133;28;19913;-77
2023/05/01 13:23:31;;;;;;;;;;;;;;;19.23;37.03;100586.53;4973590;28;19920;-77
2023/05/01 13:26:25;;;;;;;;;;;;;;;19.16;37.86;100588.38;4977345;28;19913;-77
2023/05/01 13:29:20;;;;;;;;;;;;;;;19.13;39.41;100586.41;4974029;28;19922;-77
2023/05/01 13:32:12;;;;;;;;;;;;;;;19.07;39.80;100585.13;4978060;28;19914;-77
2023/05/01 13:35:04;;;;;;;;;;;;;;;19.01;38.87;100583.88;4975831;28;19914;-77
2023/05/01 13:37:56;;;;;;;;;;;;;;;18.95;38.69;100577.91;4948740;28;19914;-77
2023/05/01 13:40:46;;;;;;;;;;;;;;;18.94;39.66;100576.34;4958318;28;19927;-75
2023/05/01 13:43:37;;;;;;;;;;;;;;;18.83;38.78;100566.34;4957284;28;20305;-76
2023/05/01 13:46:29;;;;;;;;;;;;;;;18.95;39.97;100571.59;4978765;28;20381;-76
2023/05/01 13:49:21;;;;;;;;;;;;;;;19.01;40.54;100570.09;4968356;28;19919;-76
2023/05/01 13:52:17;;;;;;;;;;;;;;;18.91;42.24;100571.56;4959067;28;19914;-77
2023/05/01 13:55:09;;;;;;;;;;;;;;;18.86;41.97;100576.59;4972933;28;19914;-77
2023/05/01 13:58:01;;;;;;;;;;;;;;;18.80;42.12;100570.63;4971051;28;19918;-77
2023/05/01 14:00:48;;;;;;;;;;;;;;;18.84;42.51;100567.94;4973535;28;19918;-77
2023/05/01 14:03:40;;;;;;;;;;;;;;;18.81;42.15;100566.69;4977440;28;20493;-76
2023/05/01 14:06:36;;;;;;;;;;;;;;;18.77;42.29;100568.63;4973002;28;19950;-77
2023/05/01 14:09:29;;;;;;;;;;;;;;;18.65;41.72;100569.63;4949757;28;19922;-77
2023/05/01 14:12:21;;;;;;;;;;;;;;;18.61;41.43;100563.31;4939745;29;19919;-77
2023/05/01 14:15:13;;;;;;;;;;;;;;;18.59;41.23;100565.63;4939183;29;19915;-77
2023/05/01 14:18:08;;;;;;;;;;;;;;;18.70;41.75;100563.81;4941309;29;20386;-77
2023/05/01 14:20:57;;;;;;;;;;;;;;;18.56;41.91;100568.34;4942583;29;19915;-77
2023/05/01 14:23:49;;;;;;;;;;;;;;;18.48;41.37;100558.38;4939021;29;19914;-78
2023/05/01 14:26:40;;;;;;;;;;;;;;;18.44;42.73;100565.78;4973524;28;19914;-77
2023/05/01 14:29:29;;;;;;;;;;;;;;;18.28;44.25;100564.00;4952833;29;19922;-77
2023/05/01 14:32:21;;;;;;;;;;;;;;;18.35;44.81;100569.59;4958209;28;20298;-77
2023/05/01 14:35:13;;;;;;;;;;;;;;;18.42;44.85;100570.88;4961192;28;19914;-77
2023/05/01 14:38:06;;;;;;;;;;;;;;;18.34;43.33;100569.94;4955129;28;19914;-77
2023/05/01 14:40:57;;;;;;;;;;;;;;;18.38;42.52;100570.81;4942617;29;19914;-77
2023/05/01 14:43:51;;;;;;;;;;;;;;;18.29;42.05;100567.50;4940520;29;19919;-77
2023/05/01 14:46:44;;;;;;;;;;;;;;;18.27;42.68;100564.34;4938045;29;19915;-77